Latest Weather Observations for Double Island Point

IDQ60901

Issued at 9:51 pm EST Wednesday 26 April 2017 (issued every 10 minutes, with the page automatically refreshed every 10 minutes)

About weather observations | Map of Brisbane area stations | Latest observations for Brisbane area | Other Formats
Station Details ID: 040068 Name: DOUBLE ISLAND POINT LIGHTHOUSE Lat: -25.93 Lon: 153.19 Height: 95.64 m
Data from the previous 72 hours. | See also: Recent months at Double Island Point
Date/Time
EST
Temp
°C
App
Temp
°C
Dew
Point
°C
Rel
Hum
%
Delta-T
°C
Wind Press
QNH
hPa
Press
MSL
hPa
Rain since
9am
mm
Dir  Spd
km/h
Gust
km/h
Spd
kts
Gust
kts
26/09:30pm 22.5 - 22.3 99 0.1 - - - - - 1011.6 - -
26/09:00pm 22.4 - 22.2 99 0.1 - - - - - 1011.7 1011.3 0.0
26/08:30pm 22.5 - 21.7 95 0.5 - - - - - 1011.6 - -
26/08:00pm 22.6 - 21.8 95 0.5 - - - - - 1011.4 1011.0 -
26/07:30pm 22.5 - 21.3 93 0.8 - - - - - 1010.9 - -
26/07:00pm 22.8 - 20.7 88 1.4 - - - - - 1010.9 1010.5 -
26/06:30pm 23.2 - 20.3 84 1.9 - - - - - 1010.6 - -
26/06:00pm 23.4 - 20.5 84 1.9 - - - - - 1010.1 1009.7 -
26/05:30pm 23.6 - 19.7 79 2.5 - - - - - 1009.8 - -
26/05:00pm 24.2 - 20.7 81 2.3 - - - - - 1009.6 1009.2 -
26/04:30pm 24.5 - 21.0 81 2.3 - - - - - 1009.4 - -
26/04:00pm 24.4 - 21.9 86 1.7 - - - - - 1009.4 1009.0 -
26/03:30pm 24.8 - 21.7 83 2.1 - - - - - 1009.5 - -
26/03:00pm 26.0 - 23.1 84 2.0 - - - - - 1009.6 1009.2 0.0
26/02:30pm 25.8 - 22.3 81 2.4 - - - - - 1009.9 - -
26/02:00pm 26.5 - 22.6 79 2.6 - - - - - 1010.1 1009.7 -
26/01:30pm 26.5 - 22.1 77 3.0 - - - - - 1010.6 - -
26/01:00pm 26.9 - 22.3 76 3.1 - - - - - 1011.0 1010.6 -
26/12:30pm 27.4 - 23.0 77 3.0 - - - - - 1011.6 - -
26/12:00pm 27.2 - 23.2 79 2.7 - - - - - 1012.3 1011.9 -
26/11:30am 27.4 - 23.8 81 2.5 - - - - - 1012.9 - -
26/11:00am 25.6 - 22.5 83 2.1 - - - - - 1013.6 1013.1 -
26/10:30am 25.0 - 22.7 87 1.6 - - - - - 1014.1 - -
26/10:00am 23.7 - 22.0 90 1.1 - - - - - 1014.5 1014.1 -
26/09:30am 23.2 - 22.0 93 0.8 - - - - - 1014.6 - -
26/09:00am 22.7 - 22.0 96 0.5 - - - - - 1014.7 1014.3 0.0
26/08:30am 22.2 - 21.7 97 0.3 - - - - - 1014.5 - -
26/08:00am 21.8 - 21.5 98 0.2 - - - - - 1014.6 1014.2 -
26/07:30am 21.4 - 21.1 98 0.2 - - - - - 1014.4 - -
26/07:00am 21.1 - 20.9 99 0.1 - - - - - 1014.5 1014.1 -
26/06:30am 20.6 - 20.4 99 0.1 - - - - - 1014.5 - -
26/06:00am 20.4 - 20.2 99 0.1 - - - - - 1014.3 1013.9 -
26/05:30am 20.3 - 20.1 99 0.1 - - - - - 1014.0 - -
26/05:00am 20.3 - 20.1 99 0.1 - - - - - 1013.9 1013.4 -
26/04:30am 20.4 - 20.2 99 0.1 - - - - - 1014.0 - -
26/04:00am 20.5 - 20.3 99 0.1 - - - - - 1013.9 1013.4 -
26/03:30am 20.6 - 20.4 99 0.1 - - - - - 1013.8 - -
26/03:00am 20.5 - 20.3 99 0.1 - - - - - 1013.8 1013.3 0.0
26/02:30am 20.5 - 20.2 98 0.2 - - - - - 1013.9 - -
26/02:00am 20.6 - 20.1 97 0.3 - - - - - 1014.0 1013.5 -
26/01:30am 20.8 - 20.0 95 0.5 - - - - - 1014.4 - -
26/01:00am 21.2 - 19.8 92 0.9 - - - - - 1014.7 1014.3 -
26/12:30am 21.7 - 19.6 88 1.3 - - - - - 1014.9 - -
26/12:00am 21.9 - 19.5 86 1.5 - - - - - 1015.1 1014.7 -
 
Date/Time
EST
Temp
°C
App
Temp
°C
Dew
Point
°C
Rel
Hum
%
Delta-T
°C
Wind Press
QNH
hPa
Press
MSL
hPa
Rain since
9am
mm
Dir  Spd
km/h
Gust
km/h
Spd
kts
Gust
kts
25/11:30pm 21.9 - 19.3 85 1.7 - - - - - 1015.4 - -
25/11:00pm 22.0 - 19.2 84 1.8 - - - - - 1015.8 1015.4 -
25/10:30pm 22.0 - 18.8 82 2.0 - - - - - 1016.0 - -
25/10:00pm 21.8 - 18.2 80 2.3 - - - - - 1016.5 1016.1 -
25/09:30pm 21.8 - 18.4 81 2.1 - - - - - 1016.4 - -
25/09:00pm 21.8 - 18.6 82 2.0 - - - - - 1016.3 1015.9 0.0
25/08:30pm 21.8 - 18.4 81 2.1 - - - - - 1016.2 - -
25/08:00pm 21.8 - 18.6 82 2.0 - - - - - 1016.2 1015.8 -
25/07:30pm 21.9 - 18.5 81 2.1 - - - - - 1016.1 - -
25/07:00pm 21.9 - 18.3 80 2.3 - - - - - 1016.1 1015.7 -
25/06:30pm 22.0 - 18.2 79 2.4 - - - - - 1015.7 - -
25/06:00pm 22.2 - 17.8 76 2.7 - - - - - 1015.5 1015.1 -
25/05:30pm 22.4 - 17.8 75 2.9 - - - - - 1015.4 - -
25/05:00pm 22.7 - 17.8 74 3.1 - - - - - 1015.5 1015.1 -
25/04:30pm 23.1 - 18.6 76 2.8 - - - - - 1015.6 - -
25/04:00pm 23.4 - 18.9 76 2.9 - - - - - 1015.6 1015.2 -
25/03:30pm 23.0 - 20.9 88 1.4 - - - - - 1015.6 - -
25/03:00pm 22.8 - 20.7 88 1.4 - - - - - 1015.6 1015.2 0.0
25/02:30pm 22.7 - 20.8 89 1.2 - - - - - 1015.7 - -
25/02:00pm 22.8 - 20.7 88 1.4 - - - - - 1015.8 1015.4 -
25/01:30pm 23.0 - 20.9 88 1.4 - - - - - 1016.1 - -
25/01:00pm 22.8 - 20.9 89 1.2 - - - - - 1016.3 1015.9 -
25/12:30pm 23.1 - 21.0 88 1.4 - - - - - 1016.9 - -
25/12:00pm 22.9 - 21.4 91 1.0 - - - - - 1017.3 1016.9 -
25/11:30am 22.8 - 21.4 92 0.9 - - - - - 1017.8 - -
25/11:00am 22.2 - 21.4 95 0.5 - - - - - 1018.1 1017.7 -
25/10:30am 22.5 - 22.0 97 0.3 - - - - - 1018.4 - -
25/10:00am 21.7 - 21.4 98 0.2 - - - - - 1018.8 1018.4 -
25/09:30am 21.0 - 20.5 97 0.3 - - - - - 1019.1 - -
25/09:00am 21.0 - 20.7 98 0.2 - - - - - 1018.9 1018.5 -
25/08:30am 20.9 - 20.6 98 0.2 - - - - - 1018.8 - -
25/08:00am 20.8 - 20.6 99 0.1 - - - - - 1018.6 1018.2 -
25/07:30am 20.5 - 20.3 99 0.1 - - - - - 1018.3 - -
25/07:00am 20.4 - 20.2 99 0.1 - - - - - 1018.1 1017.7 -
25/06:30am 19.9 - 19.7 99 0.1 - - - - - 1018.0 - -
25/06:00am 19.9 - 19.7 99 0.1 - - - - - 1017.7 1017.3 -
25/05:30am 19.8 - 19.6 99 0.1 - - - - - 1017.6 - -
25/05:00am 19.9 - 19.7 99 0.1 - - - - - 1017.2 1016.8 -
25/04:30am 19.9 - 19.1 95 0.5 - - - - - 1017.1 - -
25/04:00am 20.3 - 19.1 93 0.8 - - - - - 1017.2 1016.8 -
25/03:30am 21.9 - 18.5 81 2.1 - - - - - 1017.4 - -
25/03:00am 21.9 - 18.5 81 2.1 - - - - - 1017.3 1016.9 0.0
25/02:30am 21.8 - 18.2 80 2.3 - - - - - 1017.4 - -
25/02:00am 21.9 - 18.1 79 2.4 - - - - - 1017.6 1017.2 -
25/01:30am 21.9 - 18.3 80 2.3 - - - - - 1017.8 - -
25/01:00am 21.9 - 18.3 80 2.3 - - - - - 1017.9 1017.5 -
25/12:30am 22.0 - 18.6 81 2.1 - - - - - 1018.4 - -
25/12:00am 21.9 - 18.1 79 2.4 - - - - - 1018.9 1018.5 -
 
Date/Time
EST
Temp
°C
App
Temp
°C
Dew
Point
°C
Rel
Hum
%
Delta-T
°C
Wind Press
QNH
hPa
Press
MSL
hPa
Rain since
9am
mm
Dir  Spd
km/h
Gust
km/h
Spd
kts
Gust
kts
24/11:30pm 21.9 - 18.1 79 2.4 - - - - - 1019.0 - -
24/11:00pm 21.9 - 17.9 78 2.5 - - - - - 1019.4 1019.0 -
24/10:30pm 21.8 - 17.6 77 2.6 - - - - - 1019.5 - -
24/10:00pm 21.9 - 17.9 78 2.5 - - - - - 1019.6 1019.2 -
24/09:30pm 21.8 - 17.6 77 2.6 - - - - - 1019.6 - -
24/09:00pm 21.8 - 17.4 76 2.7 - - - - - 1019.9 1019.5 0.0
24/08:30pm 21.9 - 17.9 78 2.5 - - - - - 1019.8 - -
24/08:00pm 21.9 - 18.1 79 2.4 - - - - - 1019.6 1019.2 -
24/07:30pm 22.0 - 18.6 81 2.1 - - - - - 1019.4 - -
24/07:00pm 22.1 - 18.5 80 2.3 - - - - - 1019.1 1018.7 -
24/06:30pm 22.1 - 18.7 81 2.1 - - - - - 1018.6 - -
24/06:00pm 22.1 - 18.7 81 2.1 - - - - - 1018.6 1018.2 -
24/05:30pm 22.1 - 18.5 80 2.3 - - - - - 1018.3 - -
24/05:00pm 22.1 - 18.3 79 2.4 - - - - - 1018.1 1017.7 -
24/04:30pm 22.3 - 18.3 78 2.5 - - - - - 1018.1 - -
24/04:00pm 22.1 - 19.3 84 1.8 - - - - - 1018.1 1017.7 -
24/03:30pm 21.6 - 19.9 90 1.1 - - - - - 1017.9 - -
24/03:00pm 21.2 - 19.5 90 1.1 - - - - - 1017.9 1017.5 -
24/02:30pm 21.6 - 19.0 85 1.6 - - - - - 1018.2 - -
24/01:30pm 22.0 - 18.2 79 2.4 - - - - - 1018.4 - -
24/01:00pm 23.0 - 18.3 75 3.0 - - - - - 1018.8 1018.4 -
24/12:30pm 21.8 - 20.1 90 1.1 - - - - - 1019.3 - -
24/12:00pm 22.1 - 20.9 93 0.8 - - - - - 1019.7 1019.3 -
24/11:30am 21.6 - 21.1 97 0.3 - - - - - 1019.9 1019.5 0.4
24/11:00am 20.1 23.9 20.1 100 0.0 CALM 0 0 0 0 1020.1 1019.7 0.4
24/10:30am 19.8 23.3 19.6 99 0.1 CALM 0 0 0 0 1020.2 1019.8 0.2
24/10:00am 19.9 20.2 19.6 98 0.2 - 17 44 9 24 1020.4 1020.0 0.2
24/09:30am 19.7 19.0 19.5 99 0.1 S 22 43 12 23 1020.7 1020.3 0.2
24/09:25am 19.5 21.6 19.0 97 0.3 S 6 43 3 23 1020.5 1020.1 0.0
24/09:00am 20.6 24.5 20.3 98 0.2 CALM 0 0 0 0 1020.6 1020.2 0.2
24/08:30am 20.6 24.4 20.1 97 0.3 CALM 0 0 0 0 1020.4 1020.0 0.2
24/08:00am 20.7 24.1 19.4 92 0.8 CALM 0 0 0 0 1020.3 1019.9 0.2
24/07:30am 22.3 25.4 18.7 80 2.3 CALM 0 0 0 0 1019.9 1019.5 0.2
24/07:00am 22.5 25.6 18.7 79 2.4 CALM 0 0 0 0 1019.7 1019.3 0.2
24/06:30am 22.4 25.2 18.0 76 2.8 CALM 0 0 0 0 1019.4 1019.0 0.2
24/06:00am 22.1 25.0 18.1 78 2.5 CALM 0 0 0 0 1019.2 1018.8 0.2
24/05:30am 22.1 24.8 17.7 76 2.7 CALM 0 0 0 0 1019.0 1018.6 0.2
24/05:00am 22.0 24.7 17.8 77 2.6 CALM 0 0 0 0 1018.9 1018.5 0.2
24/04:30am 22.1 24.7 17.5 75 2.9 CALM 0 0 0 0 1018.7 1018.3 0.2
24/04:00am 22.2 24.6 17.1 73 3.1 CALM 0 0 0 0 1018.7 1018.3 0.2
24/03:30am 22.2 24.6 16.9 72 3.3 CALM 0 0 0 0 1018.4 1018.0 0.2
24/03:00am 22.0 24.6 17.6 76 2.7 CALM 0 0 0 0 1018.8 1018.4 0.2
24/02:30am 22.0 24.6 17.6 76 2.7 CALM 0 0 0 0 1019.3 1018.9 0.2
24/02:00am 21.9 24.6 17.7 77 2.6 CALM 0 0 0 0 1019.3 1018.9 0.2
24/01:30am 22.0 24.6 17.6 76 2.7 CALM 0 0 0 0 1019.4 1019.0 0.2
24/01:00am 22.0 24.6 17.4 75 2.8 CALM 0 0 0 0 1019.9 1019.5 0.2
24/12:30am 22.0 24.7 17.8 77 2.6 CALM 0 0 0 0 1020.2 1019.8 0.2
24/12:00am 22.1 24.8 17.7 76 2.7 CALM 0 0 0 0 1020.5 1020.1 0.2
 
Date/Time
EST
Temp
°C
App
Temp
°C
Dew
Point
°C
Rel
Hum
%
Delta-T
°C
Wind Press
QNH
hPa
Press
MSL
hPa
Rain since
9am
mm
Dir  Spd
km/h
Gust
km/h
Spd
kts
Gust
kts
23/11:30pm 22.1 24.7 17.5 75 2.9 CALM 0 0 0 0 1020.7 1020.3 0.2
23/11:00pm 22.1 24.9 17.9 77 2.6 CALM 0 0 0 0 1020.9 1020.5 0.2
23/10:30pm 22.2 24.8 17.6 75 2.9 CALM 0 0 0 0 1021.0 1020.6 0.2
23/10:00pm 22.3 25.1 17.9 76 2.7 CALM 0 0 0 0 1021.1 1020.7 0.2

Latest Capital City Observations: Canberra | Sydney | Melbourne | Brisbane | Adelaide | Perth | Hobart | Darwin

Other Formats:

Comma delimited format used in spreadsheet applications
http://www.bom.gov.au/fwo/IDQ60901/IDQ60901.94584.axf

JavaScript Object Notation format (JSON) in row-major order
http://www.bom.gov.au/fwo/IDQ60901/IDQ60901.94584.json